createdAt,value
2023-04-29T00:01:15.818Z,47.72
2023-04-29T00:04:03.082Z,44.67
2023-04-29T00:06:49.102Z,37.47
2023-04-29T00:09:34.862Z,46.45
2023-04-29T00:12:20.363Z,51.15
2023-04-29T00:15:06.607Z,45.85
2023-04-29T00:17:52.248Z,45.50
2023-04-29T00:20:40.048Z,46.45
2023-04-29T00:23:25.961Z,52.83
2023-04-29T00:26:12.059Z,46.88
2023-04-29T00:28:59.482Z,47.75
2023-04-29T00:31:46.095Z,61.28
2023-04-29T00:34:32.029Z,48.90
2023-04-29T00:37:18.982Z,55.67
2023-04-29T00:40:06.690Z,57.67
2023-04-29T00:42:52.524Z,48.20
2023-04-29T00:45:38.435Z,61.88
2023-04-29T00:48:23.976Z,60.75
2023-04-29T00:51:10.096Z,60.70
2023-04-29T00:53:57.579Z,61.15
2023-04-29T00:56:45.846Z,63.95
2023-04-29T00:59:32.433Z,61.45
2023-04-29T01:02:19.550Z,69.60
2023-04-29T01:05:05.433Z,68.53
2023-04-29T01:08:02.456Z,69.00
2023-04-29T01:11:05.325Z,68.35
2023-04-29T01:13:54.478Z,64.82
2023-04-29T01:16:47.631Z,73.57
2023-04-29T01:19:44.143Z,68.18
2023-04-29T01:22:29.787Z,69.68
2023-04-29T01:25:16.647Z,65.97
2023-04-29T01:28:50.556Z,66.00
2023-04-29T01:31:41.855Z,68.93
2023-04-29T01:34:34.425Z,70.00
2023-04-29T01:37:33.471Z,62.55
2023-04-29T01:40:27.496Z,67.93
2023-04-29T01:43:32.769Z,66.65
2023-04-29T01:46:24.836Z,64.28
2023-04-29T01:49:14.506Z,66.25
2023-04-29T01:52:00.439Z,69.63
2023-04-29T01:54:46.666Z,64.57
2023-04-29T01:57:34.413Z,69.10
2023-04-29T02:00:27.612Z,65.90
2023-04-29T02:03:13.654Z,68.90
2023-04-29T02:06:03.320Z,67.82
2023-04-29T02:08:49.597Z,69.80
2023-04-29T02:11:36.116Z,67.28
2023-04-29T02:14:23.493Z,58.17
2023-04-29T02:17:10.370Z,70.15
2023-04-29T02:19:56.445Z,66.68
2023-04-29T02:22:42.653Z,67.68
2023-04-29T02:25:28.602Z,67.50
2023-04-29T02:28:14.271Z,65.55
2023-04-29T02:31:02.014Z,68.47
2023-04-29T02:33:47.861Z,61.83
2023-04-29T02:36:33.397Z,56.67
2023-04-29T02:39:20.628Z,57.25
2023-04-29T02:42:06.635Z,55.30
2023-04-29T02:44:55.724Z,58.75
2023-04-29T02:47:42.744Z,52.72
2023-04-29T02:50:28.701Z,54.95
2023-04-29T02:53:14.416Z,57.97
2023-04-29T02:56:00.208Z,62.28
2023-04-29T02:58:45.894Z,52.60
2023-04-29T03:01:32.361Z,57.60
2023-04-29T03:04:19.901Z,62.38
2023-04-29T03:07:08.005Z,52.60
2023-04-29T03:09:54.167Z,53.00
2023-04-29T03:12:40.134Z,59.97
2023-04-29T03:15:26.230Z,56.15
2023-04-29T03:18:11.945Z,58.63
2023-04-29T03:20:59.145Z,53.58
2023-04-29T03:23:44.911Z,63.97
2023-04-29T03:26:36.847Z,52.53
2023-04-29T03:29:23.397Z,56.88
2023-04-29T03:32:09.100Z,55.67
2023-04-29T03:34:55.178Z,56.88
2023-04-29T03:37:56.421Z,53.97
2023-04-29T03:40:47.824Z,52.88
2023-04-29T03:43:35.245Z,47.47
2023-04-29T03:46:21.293Z,49.67
2023-04-29T03:49:07.314Z,50.95
2023-04-29T03:51:53.900Z,54.60
2023-04-29T03:54:41.431Z,49.13
2023-04-29T03:57:27.697Z,49.65
2023-04-29T04:00:15.162Z,49.97
2023-04-29T04:03:06.199Z,42.97
2023-04-29T04:05:53.977Z,38.78
2023-04-29T04:08:41.343Z,37.42
2023-04-29T04:11:42.108Z,38.65
2023-04-29T04:14:28.893Z,36.58
2023-04-29T04:17:14.854Z,35.95
2023-04-29T04:20:00.916Z,36.72
2023-04-29T04:22:46.546Z,33.08
2023-04-29T04:25:37.427Z,33.55
2023-04-29T04:28:47.612Z,34.75
2023-04-29T04:31:56.255Z,31.58
2023-04-29T04:34:43.467Z,33.60
2023-04-29T04:37:29.255Z,31.98
2023-04-29T04:40:17.876Z,36.72
2023-04-29T04:43:26.781Z,38.50
2023-04-29T04:46:15.137Z,31.35
2023-04-29T04:49:11.092Z,33.60
2023-04-29T04:52:01.979Z,32.40
2023-04-29T04:54:48.892Z,31.92
2023-04-29T04:57:40.341Z,32.95
2023-04-29T05:00:26.236Z,33.53
2023-04-29T05:03:13.516Z,35.50
2023-04-29T05:06:00.819Z,29.27
2023-04-29T05:08:47.562Z,29.30
2023-04-29T05:11:34.643Z,30.88
2023-04-29T05:14:30.514Z,27.13
2023-04-29T05:17:16.136Z,30.30
2023-04-29T05:20:04.040Z,24.75
2023-04-29T05:22:52.385Z,27.38
2023-04-29T05:25:38.974Z,31.70
2023-04-29T05:28:26.562Z,23.52
2023-04-29T05:31:13.905Z,22.77
2023-04-29T05:34:00.125Z,28.52
2023-04-29T05:36:47.335Z,23.77
2023-04-29T05:39:33.431Z,27.05
2023-04-29T05:42:27.888Z,26.40
2023-04-29T05:45:13.970Z,24.73
2023-04-29T05:47:59.865Z,24.25
2023-04-29T05:50:45.734Z,29.02
2023-04-29T05:53:33.363Z,26.80
2023-04-29T05:56:20.043Z,27.15
2023-04-29T05:59:05.944Z,29.60
2023-04-29T06:01:51.707Z,22.55
2023-04-29T06:04:38.011Z,20.73
2023-04-29T06:07:42.176Z,18.92
2023-04-29T06:10:51.791Z,22.42
2023-04-29T06:13:37.477Z,24.63
2023-04-29T06:16:24.541Z,21.65
2023-04-29T06:19:10.533Z,24.50
2023-04-29T06:21:55.984Z,18.10
2023-04-29T06:24:41.864Z,20.05
2023-04-29T06:27:30.605Z,27.45
2023-04-29T06:30:16.657Z,21.98
2023-04-29T06:33:03.472Z,22.88
2023-04-29T06:35:49.472Z,21.13
2023-04-29T06:38:58.898Z,19.23
2023-04-29T06:41:52.331Z,24.27
2023-04-29T06:44:58.365Z,19.92
2023-04-29T06:47:56.949Z,19.38
2023-04-29T06:51:04.068Z,20.00
2023-04-29T06:53:49.724Z,20.20
2023-04-29T06:56:35.719Z,22.38
2023-04-29T06:59:21.530Z,21.67
2023-04-29T07:02:08.368Z,19.92
2023-04-29T07:04:53.898Z,19.77
2023-04-29T07:07:40.027Z,20.92
2023-04-29T07:10:27.689Z,21.88
2023-04-29T07:13:13.913Z,21.45
2023-04-29T07:16:00.930Z,18.40
2023-04-29T07:18:48.763Z,24.60
2023-04-29T07:21:34.728Z,17.48
2023-04-29T07:24:23.025Z,19.45
2023-04-29T07:27:08.769Z,18.00
2023-04-29T07:29:55.444Z,18.77
2023-04-29T07:32:41.869Z,18.77
2023-04-29T07:35:28.949Z,18.63
2023-04-29T07:38:15.090Z,15.27
2023-04-29T07:41:01.106Z,18.05
2023-04-29T07:43:46.630Z,16.10
2023-04-29T07:46:32.227Z,16.92
2023-04-29T07:49:18.056Z,23.65
2023-04-29T07:52:07.735Z,18.02
2023-04-29T07:54:56.115Z,16.45
2023-04-29T07:57:41.921Z,18.92
2023-04-29T08:00:28.307Z,16.20
2023-04-29T08:03:14.575Z,13.45
2023-04-29T08:06:01.792Z,17.02
2023-04-29T08:08:49.207Z,16.50
2023-04-29T08:11:37.345Z,21.55
2023-04-29T08:14:23.430Z,19.63
2023-04-29T08:17:09.130Z,17.30
2023-04-29T08:19:54.575Z,18.80
2023-04-29T08:22:40.656Z,13.95
2023-04-29T08:25:29.206Z,16.70
2023-04-29T08:28:14.870Z,16.30
2023-04-29T08:31:00.767Z,15.32
2023-04-29T08:33:46.529Z,16.17
2023-04-29T08:36:32.415Z,15.98
2023-04-29T08:39:18.274Z,18.30
2023-04-29T08:42:09.921Z,14.63
2023-04-29T08:44:56.400Z,12.75
2023-04-29T08:47:42.909Z,11.60
2023-04-29T08:50:29.922Z,15.25
2023-04-29T08:53:15.834Z,13.73
2023-04-29T08:56:08.730Z,14.80
2023-04-29T08:58:59.157Z,14.85
2023-04-29T09:01:52.209Z,13.73
2023-04-29T09:04:47.348Z,12.80
2023-04-29T09:07:34.541Z,12.02
2023-04-29T09:10:21.235Z,15.23
2023-04-29T09:13:06.757Z,11.02
2023-04-29T09:15:53.929Z,10.32
2023-04-29T09:18:44.128Z,10.75
2023-04-29T09:21:33.301Z,15.18
2023-04-29T09:24:26.548Z,9.82
2023-04-29T09:27:27.443Z,12.07
2023-04-29T09:30:13.904Z,9.77
2023-04-29T09:33:08.760Z,9.82
2023-04-29T09:35:54.324Z,10.85
2023-04-29T09:38:54.983Z,9.20
2023-04-29T09:41:42.776Z,8.20
2023-04-29T09:44:32.962Z,8.10
2023-04-29T09:47:30.189Z,6.93
2023-04-29T09:50:19.569Z,8.07
2023-04-29T09:53:06.541Z,6.85
2023-04-29T09:56:02.748Z,10.43
2023-04-29T09:58:48.418Z,6.72
2023-04-29T10:01:35.609Z,10.20
2023-04-29T10:04:23.333Z,5.57
2023-04-29T10:07:14.681Z,8.35
2023-04-29T10:10:00.815Z,9.35
2023-04-29T10:12:47.119Z,9.30
2023-04-29T10:15:40.055Z,6.75
2023-04-29T10:18:35.801Z,7.75
2023-04-29T10:21:27.105Z,6.25
2023-04-29T10:24:17.351Z,6.75
2023-04-29T10:27:07.002Z,8.23
2023-04-29T10:29:54.350Z,9.55
2023-04-29T10:32:50.357Z,8.07
2023-04-29T10:35:38.551Z,6.70
2023-04-29T10:38:44.011Z,9.95
2023-04-29T10:41:36.671Z,8.07
2023-04-29T10:44:24.166Z,10.48
2023-04-29T10:47:20.201Z,9.32
2023-04-29T10:50:07.033Z,6.65
2023-04-29T10:52:52.714Z,8.32
2023-04-29T10:55:38.936Z,8.90
2023-04-29T10:58:41.249Z,7.35
2023-04-29T11:01:45.049Z,6.25
2023-04-29T11:04:31.762Z,7.55
2023-04-29T11:07:29.370Z,7.20
2023-04-29T11:10:15.157Z,8.73
2023-04-29T11:13:22.114Z,6.47
2023-04-29T11:16:10.622Z,8.15
2023-04-29T11:19:07.204Z,5.75
2023-04-29T11:22:08.364Z,6.80
2023-04-29T11:27:43.158Z,6.50
2023-04-29T11:30:29.900Z,5.90
2023-04-29T11:33:17.130Z,5.72
2023-04-29T11:36:03.538Z,5.57
2023-04-29T11:38:49.477Z,6.15
2023-04-29T11:41:35.845Z,10.40
2023-04-29T11:44:22.722Z,5.72
2023-04-29T11:47:08.357Z,6.18
2023-04-29T11:50:02.811Z,8.32
2023-04-29T11:52:49.124Z,7.55
2023-04-29T11:55:35.224Z,4.50
2023-04-29T11:58:21.184Z,5.85
2023-04-29T12:01:06.995Z,6.22
2023-04-29T12:03:59.342Z,7.22
2023-04-29T12:06:46.706Z,8.32
2023-04-29T12:09:42.555Z,7.18
2023-04-29T12:12:28.436Z,6.18
2023-04-29T12:15:14.637Z,6.60
2023-04-29T12:18:01.554Z,6.50
2023-04-29T12:20:48.305Z,5.20
2023-04-29T12:23:36.923Z,7.18
2023-04-29T12:26:22.431Z,6.60
2023-04-29T12:29:10.905Z,5.72
2023-04-29T12:31:56.979Z,5.70
2023-04-29T12:34:42.782Z,6.55
2023-04-29T12:37:28.981Z,6.25
2023-04-29T12:40:16.899Z,8.32
2023-04-29T12:43:08.477Z,6.78
2023-04-29T12:45:55.464Z,6.43
2023-04-29T12:48:41.982Z,6.68
2023-04-29T12:51:27.872Z,7.22
2023-04-29T12:54:13.288Z,5.30
2023-04-29T12:57:00.780Z,5.60
2023-04-29T12:59:46.503Z,8.48
2023-04-29T13:02:32.343Z,8.40
2023-04-29T13:05:18.140Z,7.15
2023-04-29T13:08:08.207Z,6.63
2023-04-29T13:10:53.882Z,8.90
2023-04-29T13:13:41.408Z,6.85
2023-04-29T13:16:27.214Z,11.20
2023-04-29T13:22:03.466Z,4.82
2023-04-29T13:24:49.337Z,3.97
2023-04-29T13:27:35.041Z,5.95
2023-04-29T13:30:21.804Z,5.10
2023-04-29T13:33:12.114Z,5.82
2023-04-29T13:35:58.954Z,6.25
2023-04-29T13:38:46.231Z,5.97
2023-04-29T13:41:35.465Z,6.10
2023-04-29T13:44:29.345Z,6.05
2023-04-29T13:47:26.060Z,8.23
2023-04-29T13:53:50.035Z,5.93
2023-04-29T13:59:40.130Z,7.47
2023-04-29T14:02:26.082Z,4.78
2023-04-29T14:05:12.172Z,5.15
2023-04-29T14:07:58.031Z,5.82
2023-04-29T14:10:43.377Z,7.57
2023-04-29T14:13:29.506Z,12.30
2023-04-29T14:16:15.212Z,6.97
2023-04-29T14:19:03.949Z,5.63
2023-04-29T14:21:49.942Z,6.03
2023-04-29T14:24:35.597Z,5.80
2023-04-29T14:27:21.673Z,7.63
2023-04-29T14:30:20.103Z,6.47
2023-04-29T14:33:06.112Z,7.28
2023-04-29T14:35:53.847Z,4.35
2023-04-29T14:38:39.707Z,8.88
2023-04-29T14:41:25.642Z,6.00
2023-04-29T14:44:11.444Z,5.55
2023-04-29T14:46:57.257Z,6.82
2023-04-29T14:49:43.164Z,8.15
2023-04-29T14:52:30.531Z,6.30
2023-04-29T14:55:16.858Z,6.95
2023-04-29T14:58:04.948Z,11.00
2023-04-29T15:00:51.139Z,8.25
2023-04-29T15:03:43.692Z,8.38
2023-04-29T15:06:31.120Z,10.70
2023-04-29T15:09:18.446Z,9.13
2023-04-29T15:12:04.833Z,10.55
2023-04-29T15:14:52.887Z,9.23
2023-04-29T15:17:38.387Z,8.88
2023-04-29T15:20:24.120Z,10.68
2023-04-29T15:23:10.142Z,7.32
2023-04-29T15:25:58.615Z,9.15
2023-04-29T15:28:45.809Z,8.07
2023-04-29T15:31:31.308Z,8.27
2023-04-29T15:34:17.261Z,6.68
2023-04-29T15:37:02.756Z,7.32
2023-04-29T15:39:48.159Z,8.23
2023-04-29T15:42:35.341Z,9.00
2023-04-29T15:45:21.218Z,7.60
2023-04-29T15:48:07.148Z,6.45
2023-04-29T15:50:53.664Z,8.10
2023-04-29T15:53:39.440Z,8.32
2023-04-29T15:56:26.017Z,5.68
2023-04-29T15:59:13.377Z,6.57
2023-04-29T16:01:59.307Z,7.07
2023-04-29T16:04:44.614Z,7.18
2023-04-29T16:07:30.682Z,8.73
2023-04-29T16:10:16.309Z,9.18
2023-04-29T16:13:02.645Z,6.57
2023-04-29T16:15:49.658Z,8.98
2023-04-29T16:18:35.557Z,9.05
2023-04-29T16:21:21.181Z,8.13
2023-04-29T16:24:07.867Z,8.38
2023-04-29T16:26:53.336Z,7.30
2023-04-29T16:29:39.041Z,4.75
2023-04-29T16:32:28.473Z,5.90
2023-04-29T16:35:14.282Z,8.40
2023-04-29T16:37:59.916Z,6.68
2023-04-29T16:40:45.869Z,6.82
2023-04-29T16:43:31.572Z,5.53
2023-04-29T16:46:17.790Z,6.30
2023-04-29T16:49:05.528Z,9.43
2023-04-29T16:51:51.025Z,7.22
2023-04-29T16:54:36.999Z,7.13
2023-04-29T16:57:28.975Z,8.88
2023-04-29T17:00:14.806Z,7.18
2023-04-29T17:03:00.949Z,5.78
2023-04-29T17:05:48.676Z,8.15
2023-04-29T17:08:37.358Z,4.35
2023-04-29T17:11:26.820Z,5.90
2023-04-29T17:14:12.588Z,5.90
2023-04-29T17:16:57.973Z,5.50
2023-04-29T17:19:43.675Z,4.35
2023-04-29T17:22:31.936Z,5.38
2023-04-29T17:25:17.971Z,4.82
2023-04-29T17:28:03.952Z,5.43
2023-04-29T17:30:50.365Z,3.92
2023-04-29T17:33:35.941Z,4.10
2023-04-29T17:36:25.128Z,4.88
2023-04-29T17:39:13.441Z,5.28
2023-04-29T17:41:59.831Z,5.00
2023-04-29T17:44:45.436Z,3.40
2023-04-29T17:47:31.617Z,5.10
2023-04-29T17:50:17.439Z,3.25
2023-04-29T17:53:03.275Z,3.70
2023-04-29T17:55:50.425Z,4.63
2023-04-29T17:58:36.111Z,6.28
2023-04-29T18:01:22.190Z,2.88
2023-04-29T18:04:08.278Z,4.10
2023-04-29T18:06:54.247Z,4.65
2023-04-29T18:09:39.992Z,4.72
2023-04-29T18:12:26.872Z,3.40
2023-04-29T18:15:16.283Z,4.43
2023-04-29T18:18:02.230Z,8.43
2023-04-29T18:20:48.341Z,6.97
2023-04-29T18:23:33.799Z,6.03
2023-04-29T18:26:19.595Z,3.72
2023-04-29T18:29:06.678Z,7.25
2023-04-29T18:31:54.622Z,5.55
2023-04-29T18:34:40.200Z,5.45
2023-04-29T18:37:25.810Z,3.25
2023-04-29T18:40:12.157Z,7.43
2023-04-29T18:42:57.957Z,4.22
2023-04-29T18:45:45.784Z,7.68
2023-04-29T18:48:31.443Z,3.67
2023-04-29T18:51:17.003Z,5.70
2023-04-29T18:54:02.759Z,3.92
2023-04-29T18:56:50.329Z,3.60
2023-04-29T18:59:37.728Z,3.47
2023-04-29T19:02:24.527Z,4.35
2023-04-29T19:05:12.862Z,6.50
2023-04-29T19:07:59.011Z,4.38
2023-04-29T19:10:45.355Z,3.83
2023-04-29T19:13:31.229Z,4.57
2023-04-29T19:16:17.025Z,5.18
2023-04-29T19:19:04.486Z,3.78
2023-04-29T19:21:50.751Z,5.30
2023-04-29T19:24:37.095Z,4.35
2023-04-29T19:27:23.874Z,4.32
2023-04-29T19:30:10.605Z,4.43
2023-04-29T19:32:56.687Z,5.03
2023-04-29T19:35:43.555Z,9.02
2023-04-29T19:38:29.213Z,7.07
2023-04-29T19:41:14.944Z,4.95
2023-04-29T19:44:00.369Z,5.55
2023-04-29T19:46:46.149Z,6.47
2023-04-29T19:49:32.159Z,3.60
2023-04-29T19:52:19.349Z,4.63
2023-04-29T19:55:05.958Z,9.43
2023-04-29T19:57:52.490Z,6.82
2023-04-29T20:00:38.240Z,7.63
2023-04-29T20:03:25.418Z,12.05
2023-04-29T20:06:11.649Z,4.97
2023-04-29T20:08:58.950Z,9.10
2023-04-29T20:11:44.683Z,8.20
2023-04-29T20:14:30.338Z,6.93
2023-04-29T20:17:17.672Z,8.63
2023-04-29T20:20:04.125Z,7.82
2023-04-29T20:22:49.798Z,9.30
2023-04-29T20:25:36.777Z,9.38
2023-04-29T20:28:22.386Z,10.10
2023-04-29T20:31:08.555Z,11.50
2023-04-29T20:33:54.419Z,13.05
2023-04-29T20:36:40.041Z,14.35
2023-04-29T20:39:26.023Z,13.05
2023-04-29T20:42:13.470Z,11.30
2023-04-29T20:44:59.046Z,12.20
2023-04-29T20:47:45.365Z,10.73
2023-04-29T20:50:31.624Z,16.05
2023-04-29T20:53:17.022Z,15.15
2023-04-29T20:56:02.738Z,14.32
2023-04-29T20:58:49.971Z,15.43
2023-04-29T21:01:37.972Z,14.00
2023-04-29T21:04:23.956Z,13.30
2023-04-29T21:07:10.205Z,15.85
2023-04-29T21:09:56.049Z,12.25
2023-04-29T21:12:41.642Z,22.63
2023-04-29T21:15:29.391Z,13.15
2023-04-29T21:18:15.452Z,12.73
2023-04-29T21:21:01.349Z,14.60
2023-04-29T21:23:46.917Z,18.00
2023-04-29T21:26:32.526Z,19.20
2023-04-29T21:29:18.021Z,17.27
2023-04-29T21:32:05.101Z,13.00
2023-04-29T21:34:50.949Z,17.55
2023-04-29T21:37:36.270Z,13.85
2023-04-29T21:40:22.813Z,19.77
2023-04-29T21:43:09.395Z,22.15
2023-04-29T21:45:55.174Z,15.80
2023-04-29T21:48:46.506Z,16.08
2023-04-29T21:51:33.945Z,18.35
2023-04-29T21:54:19.543Z,17.50
2023-04-29T21:57:05.449Z,18.77
2023-04-29T21:59:51.391Z,21.38
2023-04-29T22:02:42.281Z,23.33
2023-04-29T22:05:29.556Z,25.77
2023-04-29T22:08:15.163Z,20.92
2023-04-29T22:11:00.978Z,20.33
2023-04-29T22:13:46.695Z,19.83
2023-04-29T22:16:33.960Z,20.77
2023-04-29T22:19:19.715Z,22.35
2023-04-29T22:22:07.113Z,22.30
2023-04-29T22:24:52.752Z,25.25
2023-04-29T22:27:38.434Z,19.02
2023-04-29T22:30:23.813Z,19.23
2023-04-29T22:33:09.879Z,19.08
2023-04-29T22:35:55.581Z,17.73
2023-04-29T22:38:42.697Z,24.60
2023-04-29T22:41:28.325Z,25.20
2023-04-29T22:44:13.816Z,19.67
2023-04-29T22:46:59.649Z,29.13
2023-04-29T22:49:45.296Z,19.35
2023-04-29T22:52:32.728Z,22.50
2023-04-29T22:55:20.011Z,24.67
2023-04-29T22:58:05.618Z,19.92
2023-04-29T23:00:53.963Z,20.90
2023-04-29T23:03:39.851Z,23.13
2023-04-29T23:06:26.281Z,23.42
2023-04-29T23:09:12.030Z,18.92
2023-04-29T23:11:59.320Z,20.88
2023-04-29T23:14:44.851Z,24.60
2023-04-29T23:17:30.856Z,19.55
2023-04-29T23:20:16.725Z,18.70
2023-04-29T23:23:02.648Z,19.00
2023-04-29T23:25:49.133Z,20.25
2023-04-29T23:28:36.453Z,16.10
2023-04-29T23:31:22.349Z,22.88
2023-04-29T23:34:08.259Z,18.33
2023-04-29T23:36:53.979Z,20.77
2023-04-29T23:39:39.693Z,19.95
2023-04-29T23:42:27.288Z,21.95
2023-04-29T23:45:14.037Z,18.77
2023-04-29T23:47:59.750Z,23.48
2023-04-29T23:50:47.130Z,19.17
2023-04-29T23:53:33.141Z,25.08
2023-04-29T23:56:18.531Z,24.00
2023-04-29T23:59:04.381Z,22.38
